createdAt,value
2018-08-30T00:00:48.957Z,3.90
2018-08-30T00:03:17.607Z,3.87
2018-08-30T00:05:46.705Z,4.03
2018-08-30T00:08:15.400Z,4.57
2018-08-30T00:10:44.814Z,3.87
2018-08-30T00:13:13.916Z,4.10
2018-08-30T00:15:42.904Z,4.40
2018-08-30T00:18:11.434Z,4.40
2018-08-30T00:20:40.259Z,3.80
2018-08-30T00:23:09.188Z,4.47
2018-08-30T00:25:37.747Z,4.33
2018-08-30T00:28:06.588Z,4.13
2018-08-30T00:30:35.591Z,4.57
2018-08-30T00:33:04.784Z,4.20
2018-08-30T00:35:33.974Z,5.23
2018-08-30T00:38:02.819Z,5.87
2018-08-30T00:40:31.724Z,5.60
2018-08-30T00:43:00.912Z,6.50
2018-08-30T00:45:29.992Z,8.97
2018-08-30T00:47:59.515Z,7.47
2018-08-30T00:50:28.163Z,6.80
2018-08-30T00:52:57.353Z,7.40
2018-08-30T00:55:26.072Z,6.07
2018-08-30T00:57:55.171Z,6.33
2018-08-30T01:00:25.041Z,5.33
2018-08-30T01:02:53.672Z,5.23
2018-08-30T01:05:22.339Z,5.03
2018-08-30T01:07:51.511Z,4.67
2018-08-30T01:10:20.591Z,4.67
2018-08-30T01:12:53.604Z,5.00
2018-08-30T01:15:23.508Z,5.07
2018-08-30T01:17:51.954Z,5.00
2018-08-30T01:20:21.043Z,4.87
2018-08-30T01:22:49.807Z,4.97
2018-08-30T01:25:18.339Z,4.37
2018-08-30T01:27:47.055Z,4.77
2018-08-30T01:30:15.896Z,4.70
2018-08-30T01:32:45.199Z,4.47
2018-08-30T01:35:14.044Z,4.10
2018-08-30T01:37:42.985Z,4.63
2018-08-30T01:40:12.096Z,4.50
2018-08-30T01:42:41.061Z,4.80
2018-08-30T01:45:10.251Z,4.97
2018-08-30T01:47:38.983Z,5.13
2018-08-30T01:50:08.332Z,4.37
2018-08-30T01:52:37.207Z,4.80
2018-08-30T01:55:06.024Z,4.50
2018-08-30T01:57:34.887Z,3.93
2018-08-30T02:00:03.808Z,4.23
2018-08-30T02:02:34.171Z,4.37
2018-08-30T02:05:03.546Z,4.77
2018-08-30T02:07:32.164Z,4.43
2018-08-30T02:10:01.372Z,4.23
2018-08-30T02:12:30.364Z,4.50
2018-08-30T02:14:59.120Z,4.07
2018-08-30T02:17:28.047Z,4.40
2018-08-30T02:19:57.320Z,4.40
2018-08-30T02:22:25.955Z,4.57
2018-08-30T02:24:54.572Z,4.40
2018-08-30T02:27:23.566Z,4.00
2018-08-30T02:29:52.233Z,4.77
2018-08-30T02:32:20.877Z,4.60
2018-08-30T02:34:49.660Z,4.20
2018-08-30T02:37:18.904Z,4.00
2018-08-30T02:39:48.216Z,4.33
2018-08-30T02:42:17.280Z,4.60
2018-08-30T02:44:45.929Z,4.57
2018-08-30T02:47:14.928Z,4.60
2018-08-30T02:49:44.147Z,4.50
2018-08-30T02:52:13.240Z,4.97
2018-08-30T02:54:42.610Z,4.20
2018-08-30T02:57:11.684Z,4.57
2018-08-30T02:59:41.074Z,4.77
2018-08-30T03:02:10.208Z,4.43
2018-08-30T03:04:39.153Z,5.53
2018-08-30T03:07:08.381Z,5.33
2018-08-30T03:09:36.773Z,4.80
2018-08-30T03:12:05.843Z,5.00
2018-08-30T03:14:34.787Z,4.47
2018-08-30T03:17:03.532Z,4.43
2018-08-30T03:19:32.174Z,4.33
2018-08-30T03:22:01.887Z,3.87
2018-08-30T03:24:30.294Z,5.00
2018-08-30T03:26:59.600Z,5.07
2018-08-30T03:29:28.748Z,4.60
2018-08-30T03:31:57.810Z,4.47
2018-08-30T03:34:29.891Z,5.43
2018-08-30T03:36:58.702Z,4.83
2018-08-30T03:39:27.628Z,4.93
2018-08-30T03:41:56.167Z,4.73
2018-08-30T03:44:25.323Z,6.10
2018-08-30T03:46:54.609Z,5.00
2018-08-30T03:49:23.143Z,5.27
2018-08-30T03:51:52.175Z,5.07
2018-08-30T03:54:21.013Z,5.40
2018-08-30T03:56:50.159Z,5.57
2018-08-30T03:59:19.200Z,5.03
2018-08-30T04:01:48.410Z,5.13
2018-08-30T04:04:17.782Z,5.47
2018-08-30T04:06:46.255Z,5.03
2018-08-30T04:09:14.922Z,5.83
2018-08-30T04:11:44.087Z,5.40
2018-08-30T04:14:12.671Z,5.23
2018-08-30T04:16:41.590Z,5.87
2018-08-30T04:19:10.468Z,6.07
2018-08-30T04:21:39.472Z,5.23
2018-08-30T04:24:09.665Z,6.27
2018-08-30T04:26:38.451Z,6.30
2018-08-30T04:29:07.276Z,7.10
2018-08-30T04:31:36.163Z,6.57
2018-08-30T04:34:05.241Z,7.37
2018-08-30T04:36:33.893Z,7.53
2018-08-30T04:39:02.751Z,7.03
2018-08-30T04:41:31.418Z,6.40
2018-08-30T04:44:00.778Z,7.53
2018-08-30T04:46:29.363Z,6.73
2018-08-30T04:48:58.440Z,7.30
2018-08-30T04:51:27.636Z,7.13
2018-08-30T04:53:56.328Z,6.43
2018-08-30T04:56:25.063Z,7.40
2018-08-30T04:58:53.916Z,7.90
2018-08-30T05:01:22.942Z,7.67
2018-08-30T05:03:51.737Z,6.87
2018-08-30T05:06:20.405Z,7.70
2018-08-30T05:08:49.459Z,7.53
2018-08-30T05:11:18.248Z,7.70
2018-08-30T05:13:47.492Z,7.47
2018-08-30T05:16:16.901Z,7.30
2018-08-30T05:18:46.241Z,6.90
2018-08-30T05:21:15.627Z,7.40
2018-08-30T05:23:44.292Z,6.60
2018-08-30T05:26:13.716Z,6.50
2018-08-30T05:28:42.608Z,7.07
2018-08-30T05:31:11.691Z,7.10
2018-08-30T05:33:40.519Z,7.40
2018-08-30T05:36:09.052Z,7.60
2018-08-30T05:38:37.980Z,3.17
2018-08-30T05:41:06.979Z,7.00
2018-08-30T05:43:35.930Z,6.43
2018-08-30T05:46:05.344Z,5.30
2018-08-30T05:48:34.680Z,5.47
2018-08-30T05:51:03.479Z,5.87
2018-08-30T05:53:32.676Z,5.60
2018-08-30T05:56:02.143Z,5.07
2018-08-30T05:58:30.815Z,6.33
2018-08-30T06:00:59.499Z,4.93
2018-08-30T06:03:28.827Z,5.40
2018-08-30T06:05:57.748Z,5.43
2018-08-30T06:08:26.641Z,5.17
2018-08-30T06:10:56.192Z,5.00
2018-08-30T06:13:25.248Z,4.83
2018-08-30T06:15:54.156Z,5.17
2018-08-30T06:18:23.287Z,4.77
2018-08-30T06:20:52.015Z,4.37
2018-08-30T06:23:20.879Z,4.90
2018-08-30T06:25:49.583Z,4.90
2018-08-30T06:28:18.947Z,4.17
2018-08-30T06:30:47.984Z,4.43
2018-08-30T06:33:17.029Z,4.17
2018-08-30T06:35:46.204Z,4.00
2018-08-30T06:38:15.116Z,4.63
2018-08-30T06:40:44.315Z,3.83
2018-08-30T06:43:12.863Z,4.40
2018-08-30T06:45:41.952Z,3.87
2018-08-30T06:48:10.940Z,3.53
2018-08-30T06:50:39.731Z,4.00
2018-08-30T06:53:08.248Z,3.90
2018-08-30T06:55:37.442Z,4.00
2018-08-30T06:58:06.103Z,4.23
2018-08-30T07:00:34.808Z,3.40
2018-08-30T07:03:03.828Z,3.37
2018-08-30T07:05:32.959Z,3.53
2018-08-30T07:08:02.225Z,3.23
2018-08-30T07:10:31.516Z,3.73
2018-08-30T07:13:00.148Z,3.87
2018-08-30T07:15:29.974Z,3.57
2018-08-30T07:17:58.599Z,4.07
2018-08-30T07:20:27.458Z,3.53
2018-08-30T07:22:56.303Z,3.53
2018-08-30T07:25:25.667Z,3.47
2018-08-30T07:27:54.615Z,3.70
2018-08-30T07:30:23.748Z,3.60
2018-08-30T07:32:52.878Z,3.63
2018-08-30T07:35:21.986Z,3.73
2018-08-30T07:37:51.083Z,3.27
2018-08-30T07:40:20.140Z,3.20
2018-08-30T07:42:49.244Z,3.17
2018-08-30T07:45:18.403Z,3.53
2018-08-30T07:47:46.941Z,3.27
2018-08-30T07:50:15.611Z,3.20
2018-08-30T07:52:44.251Z,2.77
2018-08-30T07:55:12.892Z,2.90
2018-08-30T07:57:42.147Z,2.57
2018-08-30T08:00:10.772Z,3.20
2018-08-30T08:02:39.520Z,2.50
2018-08-30T08:05:08.064Z,3.07
2018-08-30T08:07:36.963Z,2.97
2018-08-30T08:10:06.010Z,2.43
2018-08-30T08:12:34.885Z,2.27
2018-08-30T08:15:04.048Z,2.57
2018-08-30T08:17:32.844Z,2.60
2018-08-30T08:20:01.535Z,2.37
2018-08-30T08:22:30.395Z,2.23
2018-08-30T08:24:59.328Z,2.20
2018-08-30T08:27:29.870Z,2.87
2018-08-30T08:29:58.411Z,2.03
2018-08-30T08:32:26.808Z,2.37
2018-08-30T08:34:55.698Z,2.10
2018-08-30T08:37:24.647Z,2.47
2018-08-30T08:39:53.205Z,1.97
2018-08-30T08:42:22.102Z,3.17
2018-08-30T08:44:50.667Z,2.30
2018-08-30T08:47:19.491Z,2.17
2018-08-30T08:49:48.334Z,1.93
2018-08-30T08:52:17.156Z,1.80
2018-08-30T08:54:45.780Z,2.80
2018-08-30T08:57:14.451Z,2.60
2018-08-30T08:59:43.673Z,2.33
2018-08-30T09:02:12.559Z,1.70
2018-08-30T09:04:41.490Z,2.00
2018-08-30T09:07:10.368Z,2.00
2018-08-30T09:09:38.972Z,1.80
2018-08-30T09:12:07.639Z,1.90
2018-08-30T09:14:36.681Z,1.67
2018-08-30T09:17:05.581Z,1.47
2018-08-30T09:19:34.476Z,1.30
2018-08-30T09:22:03.353Z,1.82
2018-08-30T09:24:32.504Z,2.00
2018-08-30T09:27:01.328Z,1.87
2018-08-30T09:29:30.232Z,1.90
2018-08-30T09:31:59.204Z,1.53
2018-08-30T09:34:28.081Z,2.13
2018-08-30T09:36:56.976Z,2.07
2018-08-30T09:39:26.048Z,1.65
2018-08-30T09:41:54.711Z,2.17
2018-08-30T09:44:23.616Z,1.60
2018-08-30T09:46:52.577Z,2.10
2018-08-30T09:49:22.312Z,2.17
2018-08-30T09:51:51.248Z,1.60
2018-08-30T09:54:20.168Z,1.60
2018-08-30T09:56:48.970Z,1.60
2018-08-30T09:59:18.210Z,1.83
2018-08-30T10:01:47.984Z,2.00
2018-08-30T10:04:16.917Z,1.93
2018-08-30T10:06:45.830Z,1.73
2018-08-30T10:09:14.677Z,1.80
2018-08-30T10:11:43.570Z,1.83
2018-08-30T10:14:12.523Z,1.50
2018-08-30T10:16:41.332Z,1.75
2018-08-30T10:19:10.363Z,1.67
2018-08-30T10:21:39.285Z,1.50
2018-08-30T10:24:08.077Z,1.62
2018-08-30T10:26:36.922Z,1.55
2018-08-30T10:29:06.118Z,1.80
2018-08-30T10:31:35.090Z,1.43
2018-08-30T10:34:03.688Z,1.50
2018-08-30T10:36:32.877Z,1.72
2018-08-30T10:39:01.679Z,1.52
2018-08-30T10:41:30.344Z,1.65
2018-08-30T10:43:59.231Z,1.47
2018-08-30T10:46:28.380Z,1.47
2018-08-30T10:48:57.243Z,1.67
2018-08-30T10:51:26.263Z,1.40
2018-08-30T10:53:54.843Z,1.32
2018-08-30T10:56:23.982Z,1.50
2018-08-30T10:58:52.308Z,1.40
2018-08-30T11:01:21.368Z,1.72
2018-08-30T11:03:50.030Z,1.50
2018-08-30T11:06:19.151Z,1.47
2018-08-30T11:08:48.195Z,1.40
2018-08-30T11:11:17.280Z,1.40
2018-08-30T11:13:46.476Z,1.75
2018-08-30T11:16:15.588Z,1.50
2018-08-30T11:18:44.431Z,1.60
2018-08-30T11:21:13.506Z,1.35
2018-08-30T11:23:42.645Z,1.25
2018-08-30T11:26:11.695Z,1.72
2018-08-30T11:28:40.855Z,1.50
2018-08-30T11:31:10.040Z,1.67
2018-08-30T11:33:39.376Z,1.85
2018-08-30T11:36:08.196Z,1.50
2018-08-30T11:38:37.207Z,1.62
2018-08-30T11:41:06.393Z,1.90
2018-08-30T11:43:34.988Z,1.87
2018-08-30T11:46:04.003Z,1.75
2018-08-30T11:48:33.196Z,2.25
2018-08-30T11:51:01.827Z,1.60
2018-08-30T11:53:30.688Z,1.50
2018-08-30T11:55:59.298Z,2.12
2018-08-30T11:58:28.451Z,1.67
2018-08-30T12:00:58.038Z,1.90
2018-08-30T12:03:26.875Z,1.70
2018-08-30T12:05:55.735Z,1.83
2018-08-30T12:08:24.574Z,1.90
2018-08-30T12:10:54.274Z,2.10
2018-08-30T12:13:23.630Z,1.70
2018-08-30T12:15:52.703Z,1.93
2018-08-30T12:18:21.628Z,1.75
2018-08-30T12:20:50.597Z,2.00
2018-08-30T12:23:19.487Z,1.70
2018-08-30T12:25:48.547Z,2.00
2018-08-30T12:28:17.626Z,1.70
2018-08-30T12:30:46.574Z,1.82
2018-08-30T12:33:15.423Z,1.98
2018-08-30T12:35:44.837Z,1.70
2018-08-30T12:38:13.347Z,1.67
2018-08-30T12:40:41.967Z,2.25
2018-08-30T12:43:11.031Z,1.80
2018-08-30T12:45:40.113Z,1.70
2018-08-30T12:48:08.638Z,1.80
2018-08-30T12:50:37.750Z,1.82
2018-08-30T12:53:06.673Z,1.80
2018-08-30T12:55:35.767Z,1.72
2018-08-30T12:58:04.624Z,2.00
2018-08-30T13:00:33.306Z,1.77
2018-08-30T13:03:02.768Z,1.65
2018-08-30T13:05:31.895Z,1.80
2018-08-30T13:08:00.619Z,2.12
2018-08-30T13:10:30.012Z,2.10
2018-08-30T13:12:58.874Z,2.10
2018-08-30T13:15:27.900Z,2.83
2018-08-30T13:17:56.756Z,2.25
2018-08-30T13:20:25.739Z,1.90
2018-08-30T13:22:54.589Z,2.42
2018-08-30T13:25:23.928Z,2.10
2018-08-30T13:27:52.618Z,1.85
2018-08-30T13:30:21.695Z,2.00
2018-08-30T13:32:50.532Z,1.57
2018-08-30T13:35:19.947Z,2.15
2018-08-30T13:37:48.969Z,1.77
2018-08-30T13:40:17.456Z,1.70
2018-08-30T13:42:46.484Z,1.80
2018-08-30T13:45:15.494Z,1.87
2018-08-30T13:47:44.230Z,1.37
2018-08-30T13:50:13.767Z,1.80
2018-08-30T13:52:42.492Z,1.52
2018-08-30T13:55:11.404Z,1.70
2018-08-30T13:57:40.481Z,1.62
2018-08-30T14:00:09.851Z,1.70
2018-08-30T14:02:38.409Z,1.70
2018-08-30T14:05:07.665Z,1.60
2018-08-30T14:07:36.161Z,2.02
2018-08-30T14:10:05.520Z,2.17
2018-08-30T14:12:34.612Z,1.60
2018-08-30T14:15:04.040Z,1.95
2018-08-30T14:17:32.121Z,1.62
2018-08-30T14:20:01.088Z,2.08
2018-08-30T14:22:30.239Z,1.80
2018-08-30T14:24:59.411Z,2.20
2018-08-30T14:27:28.979Z,1.80
2018-08-30T14:29:58.184Z,2.30
2018-08-30T14:32:26.736Z,1.60
2018-08-30T14:34:55.360Z,1.60
2018-08-30T14:37:24.374Z,1.40
2018-08-30T14:39:53.435Z,1.90
2018-08-30T14:42:22.395Z,1.55
2018-08-30T14:44:51.187Z,1.70
2018-08-30T14:47:20.469Z,1.57
2018-08-30T14:49:49.343Z,1.50
2018-08-30T14:52:18.224Z,1.80
2018-08-30T14:54:46.891Z,1.70
2018-08-30T14:57:15.579Z,1.50
2018-08-30T14:59:44.146Z,1.55
2018-08-30T15:02:12.857Z,1.70
2018-08-30T15:04:41.987Z,1.90
2018-08-30T15:07:10.948Z,2.50
2018-08-30T15:09:39.999Z,1.60
2018-08-30T15:12:09.146Z,1.70
2018-08-30T15:14:38.328Z,1.90
2018-08-30T15:17:07.254Z,1.70
2018-08-30T15:19:36.161Z,1.67
2018-08-30T15:22:05.332Z,1.37
2018-08-30T15:24:34.792Z,1.60
2018-08-30T15:27:04.062Z,1.60
2018-08-30T15:29:32.780Z,1.10
2018-08-30T15:32:02.800Z,1.10
2018-08-30T15:34:31.915Z,1.50
2018-08-30T15:37:00.640Z,1.45
2018-08-30T15:39:29.104Z,1.27
2018-08-30T15:41:59.042Z,1.80
2018-08-30T15:44:28.089Z,1.67
2018-08-30T15:46:57.040Z,1.50
2018-08-30T15:49:26.107Z,1.50
2018-08-30T15:51:54.844Z,1.60
2018-08-30T15:54:24.228Z,1.57
2018-08-30T15:56:53.332Z,1.67
2018-08-30T15:59:22.678Z,1.50
2018-08-30T16:01:51.539Z,1.63
2018-08-30T16:04:20.740Z,1.50
2018-08-30T16:06:49.681Z,1.40
2018-08-30T16:09:18.840Z,1.50
2018-08-30T16:11:48.105Z,1.67
2018-08-30T16:14:16.845Z,1.63
2018-08-30T16:16:45.843Z,1.33
2018-08-30T16:19:14.761Z,1.30
2018-08-30T16:21:43.935Z,1.70
2018-08-30T16:24:12.681Z,1.30
2018-08-30T16:26:41.203Z,1.40
2018-08-30T16:29:10.433Z,1.55
2018-08-30T16:31:38.996Z,1.70
2018-08-30T16:34:08.395Z,2.90
2018-08-30T16:36:37.392Z,3.00
2018-08-30T16:39:07.818Z,2.30
2018-08-30T16:41:36.824Z,1.92
2018-08-30T16:44:06.151Z,1.70
2018-08-30T16:46:34.938Z,1.50
2018-08-30T16:49:04.691Z,1.70
2018-08-30T16:51:33.935Z,1.83
2018-08-30T16:54:03.307Z,2.00
2018-08-30T16:56:32.445Z,1.70
2018-08-30T16:59:01.690Z,1.60
2018-08-30T17:01:30.762Z,1.60
2018-08-30T17:03:59.763Z,1.90
2018-08-30T17:06:28.162Z,1.50
2018-08-30T17:08:57.432Z,1.90
2018-08-30T17:11:27.132Z,1.43
2018-08-30T17:13:56.523Z,1.70
2018-08-30T17:16:25.896Z,1.50
2018-08-30T17:18:56.432Z,1.90
2018-08-30T17:21:25.116Z,1.73
2018-08-30T17:23:54.084Z,1.50
2018-08-30T17:26:23.277Z,1.67
2018-08-30T17:28:52.285Z,1.40
2018-08-30T17:31:21.645Z,1.57
2018-08-30T17:33:50.793Z,1.40
2018-08-30T17:36:20.086Z,1.57
2018-08-30T17:38:48.546Z,1.70
2018-08-30T17:41:18.236Z,1.60
2018-08-30T17:43:47.594Z,1.70
2018-08-30T17:46:16.905Z,1.63
2018-08-30T17:48:46.503Z,1.93
2018-08-30T17:51:15.852Z,1.70
2018-08-30T17:53:47.126Z,1.80
2018-08-30T17:56:19.280Z,1.50
2018-08-30T17:58:48.591Z,1.70
2018-08-30T18:01:17.925Z,1.87
2018-08-30T18:03:47.211Z,1.90
2018-08-30T18:06:16.701Z,1.47
2018-08-30T18:08:46.308Z,1.70
2018-08-30T18:11:15.780Z,1.70
2018-08-30T18:13:44.708Z,2.03
2018-08-30T18:16:13.995Z,1.80
2018-08-30T18:18:42.972Z,1.83
2018-08-30T18:21:12.278Z,1.70
2018-08-30T18:23:41.978Z,1.97
2018-08-30T18:26:11.325Z,2.20
2018-08-30T18:28:40.392Z,1.77
2018-08-30T18:31:10.181Z,1.50
2018-08-30T18:33:39.414Z,1.87
2018-08-30T18:36:08.246Z,1.80
2018-08-30T18:38:36.936Z,1.60
2018-08-30T18:41:05.571Z,1.80
2018-08-30T18:43:35.107Z,2.10
2018-08-30T18:46:04.080Z,2.00
2018-08-30T18:48:33.430Z,2.00
2018-08-30T18:51:02.496Z,2.20
2018-08-30T18:53:31.435Z,2.73
2018-08-30T18:56:01.071Z,2.40
2018-08-30T18:58:30.067Z,2.23
2018-08-30T19:00:59.347Z,2.20
2018-08-30T19:03:28.952Z,2.10
2018-08-30T19:05:58.843Z,2.20
2018-08-30T19:08:27.760Z,2.30
2018-08-30T19:10:56.904Z,2.00
2018-08-30T19:13:26.140Z,1.93
2018-08-30T19:16:00.682Z,2.33
2018-08-30T19:18:34.926Z,2.73
2018-08-30T19:21:04.068Z,2.10
2018-08-30T19:23:33.312Z,2.10
2018-08-30T19:26:02.388Z,3.03
2018-08-30T19:28:32.043Z,2.43
2018-08-30T19:31:01.292Z,2.40
2018-08-30T19:33:30.858Z,2.10
2018-08-30T19:36:05.447Z,2.37
2018-08-30T19:38:35.026Z,2.20
2018-08-30T19:41:09.042Z,2.07
2018-08-30T19:43:38.578Z,2.30
2018-08-30T19:46:08.137Z,2.30
2018-08-30T19:48:37.804Z,2.47
2018-08-30T19:51:07.106Z,1.93
2018-08-30T19:53:37.140Z,2.00
2018-08-30T19:56:06.492Z,2.40
2018-08-30T19:58:35.664Z,2.20
2018-08-30T20:01:04.738Z,2.33
2018-08-30T20:03:34.006Z,2.30
2018-08-30T20:06:03.024Z,2.30
2018-08-30T20:08:32.212Z,2.10
2018-08-30T20:11:01.394Z,2.30
2018-08-30T20:13:30.436Z,2.37
2018-08-30T20:15:59.593Z,2.80
2018-08-30T20:18:28.842Z,2.43
2018-08-30T20:20:58.235Z,2.17
2018-08-30T20:23:27.536Z,2.33
2018-08-30T20:25:56.986Z,2.30
2018-08-30T20:28:26.260Z,2.13
2018-08-30T20:30:55.408Z,2.30
2018-08-30T20:33:24.547Z,2.37
2018-08-30T20:35:53.464Z,2.40
2018-08-30T20:38:22.436Z,2.17
2018-08-30T20:40:51.504Z,2.20
2018-08-30T20:43:20.848Z,2.20
2018-08-30T20:45:49.618Z,2.30
2018-08-30T20:48:18.531Z,2.63
2018-08-30T20:50:47.483Z,2.10
2018-08-30T20:53:16.701Z,2.20
2018-08-30T20:55:45.328Z,2.50
2018-08-30T20:58:14.336Z,2.37
2018-08-30T21:00:43.299Z,2.20
2018-08-30T21:03:12.196Z,2.17
2018-08-30T21:05:41.071Z,2.63
2018-08-30T21:08:10.279Z,2.37
2018-08-30T21:10:39.191Z,2.10
2018-08-30T21:13:08.092Z,2.53
2018-08-30T21:15:37.289Z,2.30
2018-08-30T21:18:06.471Z,3.37
2018-08-30T21:20:35.475Z,2.17
2018-08-30T21:23:04.767Z,2.53
2018-08-30T21:25:33.899Z,2.73
2018-08-30T21:28:03.100Z,2.50
2018-08-30T21:30:32.314Z,2.70
2018-08-30T21:33:01.007Z,2.67
2018-08-30T21:35:30.225Z,2.57
2018-08-30T21:37:59.379Z,2.60
2018-08-30T21:40:27.997Z,2.83
2018-08-30T21:42:57.212Z,2.87
2018-08-30T21:45:26.559Z,2.80
2018-08-30T21:47:55.416Z,2.83
2018-08-30T21:50:24.354Z,2.10
2018-08-30T21:52:52.912Z,2.20
2018-08-30T21:55:21.535Z,2.60
2018-08-30T21:57:50.563Z,2.57
2018-08-30T22:00:19.788Z,2.70
2018-08-30T22:02:48.714Z,3.07
2018-08-30T22:05:17.604Z,2.40
2018-08-30T22:07:46.280Z,2.67
2018-08-30T22:10:16.031Z,2.70
2018-08-30T22:12:45.100Z,2.70
2018-08-30T22:15:14.223Z,2.97
2018-08-30T22:17:43.533Z,3.00
2018-08-30T22:20:12.527Z,3.23
2018-08-30T22:22:41.788Z,2.93
2018-08-30T22:25:10.322Z,3.20
2018-08-30T22:27:38.843Z,3.30
2018-08-30T22:30:08.248Z,3.40
2018-08-30T22:32:36.919Z,3.33
2018-08-30T22:35:05.935Z,3.23
2018-08-30T22:37:35.064Z,3.57
2018-08-30T22:40:03.646Z,3.33
2018-08-30T22:42:33.028Z,3.43
2018-08-30T22:45:02.200Z,3.27
2018-08-30T22:47:30.967Z,3.57
2018-08-30T22:49:59.753Z,3.30
2018-08-30T22:52:28.819Z,3.30
2018-08-30T22:54:57.523Z,3.43
2018-08-30T22:57:26.320Z,3.90
2018-08-30T22:59:55.612Z,3.00
2018-08-30T23:02:24.495Z,3.40
2018-08-30T23:04:53.703Z,3.00
2018-08-30T23:07:22.792Z,3.13
2018-08-30T23:09:52.693Z,3.20
2018-08-30T23:12:21.349Z,3.50
2018-08-30T23:14:50.196Z,3.00
2018-08-30T23:17:19.434Z,3.30
2018-08-30T23:19:48.404Z,2.77
2018-08-30T23:22:17.296Z,3.10
2018-08-30T23:24:45.928Z,3.10
2018-08-30T23:27:14.983Z,3.13
2018-08-30T23:29:43.884Z,2.93
2018-08-30T23:32:12.696Z,2.67
2018-08-30T23:34:41.995Z,2.90
2018-08-30T23:37:10.871Z,2.80
2018-08-30T23:39:40.012Z,2.77
2018-08-30T23:42:09.375Z,2.80
2018-08-30T23:44:38.189Z,3.07
2018-08-30T23:47:06.742Z,3.37
2018-08-30T23:49:35.625Z,3.33
2018-08-30T23:52:04.875Z,3.43
2018-08-30T23:54:33.885Z,3.23
2018-08-30T23:57:03.150Z,2.97
